McCoy, Colorado
Current Conditions -  °F | °C
As of 4:50 PM on Wednesday 22 Oct 2014 (Local Time) from KEGE Reporting Station
Rain Showers Rain Showers  
Wind Chill: 52°   Ceiling: 6500
Heat Index: 52°   Visibility: 10mi
Dew Point: 39°   Wind: 7mph
Humidity: 62%   Direction: 330°NNW
Pressure: 30.22"   Gusts: NA
Location:  39.92°N, 106.73°W
Report Text: KEGE 222250Z 33006KT 10SM VCSH SCT040 BKN065 11/04 A3022
Loading
Personal Weather Stations






























Interactive Weather Map
Tropical Storm Tracking
New forecast layout! Learn more

10-Day Weather Forecast

Advertisements
Track Severe Weather on mobile